sensor_id;sensor_type;location;lat;lon;timestamp;P1;durP1;ratioP1;P2;durP2;ratioP2
34765;SDS011;20984;43.508;1.504;2022-10-26T00:00:29;24.05;;;11.85;;
34765;SDS011;20984;43.508;1.504;2022-10-26T00:02:55;23.75;;;11.48;;
34765;SDS011;20984;43.508;1.504;2022-10-26T00:05:21;26.73;;;11.80;;
34765;SDS011;20984;43.508;1.504;2022-10-26T00:07:48;22.42;;;12.40;;
34765;SDS011;20984;43.508;1.504;2022-10-26T00:10:14;24.23;;;12.48;;
34765;SDS011;20984;43.508;1.504;2022-10-26T00:12:40;32.25;;;13.75;;
34765;SDS011;20984;43.508;1.504;2022-10-26T00:15:06;23.48;;;12.48;;
34765;SDS011;20984;43.508;1.504;2022-10-26T00:17:33;23.60;;;11.93;;
34765;SDS011;20984;43.508;1.504;2022-10-26T00:19:59;34.05;;;13.15;;
34765;SDS011;20984;43.508;1.504;2022-10-26T00:22:26;23.25;;;11.45;;
34765;SDS011;20984;43.508;1.504;2022-10-26T00:24:52;28.23;;;13.20;;
34765;SDS011;20984;43.508;1.504;2022-10-26T00:27:17;37.28;;;13.93;;
34765;SDS011;20984;43.508;1.504;2022-10-26T00:29:43;22.00;;;11.25;;
34765;SDS011;20984;43.508;1.504;2022-10-26T00:32:09;25.85;;;13.27;;
34765;SDS011;20984;43.508;1.504;2022-10-26T00:34:35;29.50;;;13.65;;
34765;SDS011;20984;43.508;1.504;2022-10-26T00:37:01;30.23;;;12.60;;
34765;SDS011;20984;43.508;1.504;2022-10-26T00:39:27;31.70;;;12.93;;
34765;SDS011;20984;43.508;1.504;2022-10-26T00:41:53;27.10;;;13.13;;
34765;SDS011;20984;43.508;1.504;2022-10-26T00:44:43;31.90;;;13.68;;
34765;SDS011;20984;43.508;1.504;2022-10-26T00:47:32;21.58;;;13.10;;
34765;SDS011;20984;43.508;1.504;2022-10-26T00:50:49;31.65;;;12.60;;
34765;SDS011;20984;43.508;1.504;2022-10-26T00:52:58;30.75;;;13.90;;
34765;SDS011;20984;43.508;1.504;2022-10-26T00:55:28;32.60;;;14.60;;
34765;SDS011;20984;43.508;1.504;2022-10-26T00:57:59;22.45;;;12.50;;
34765;SDS011;20984;43.508;1.504;2022-10-26T01:00:27;30.75;;;14.20;;
34765;SDS011;20984;43.508;1.504;2022-10-26T01:02:53;32.30;;;13.82;;
34765;SDS011;20984;43.508;1.504;2022-10-26T01:05:21;27.13;;;14.23;;
34765;SDS011;20984;43.508;1.504;2022-10-26T01:07:48;32.60;;;15.25;;
34765;SDS011;20984;43.508;1.504;2022-10-26T01:10:15;33.63;;;14.48;;
34765;SDS011;20984;43.508;1.504;2022-10-26T01:12:42;35.97;;;16.13;;
34765;SDS011;20984;43.508;1.504;2022-10-26T01:15:09;33.05;;;14.60;;
34765;SDS011;20984;43.508;1.504;2022-10-26T01:23:25;31.13;;;15.00;;
34765;SDS011;20984;43.508;1.504;2022-10-26T01:29:39;39.75;;;14.93;;
34765;SDS011;20984;43.508;1.504;2022-10-26T01:32:22;34.83;;;16.15;;
34765;SDS011;20984;43.508;1.504;2022-10-26T01:35:08;31.65;;;15.80;;
34765;SDS011;20984;43.508;1.504;2022-10-26T01:37:45;29.60;;;17.08;;
34765;SDS011;20984;43.508;1.504;2022-10-26T01:40:24;31.83;;;15.88;;
34765;SDS011;20984;43.508;1.504;2022-10-26T01:45:27;35.83;;;17.83;;
34765;SDS011;20984;43.508;1.504;2022-10-26T01:47:55;42.17;;;17.85;;
34765;SDS011;20984;43.508;1.504;2022-10-26T01:50:22;36.85;;;18.15;;
34765;SDS011;20984;43.508;1.504;2022-10-26T01:52:49;33.58;;;15.45;;
34765;SDS011;20984;43.508;1.504;2022-10-26T01:58:06;32.92;;;17.42;;
34765;SDS011;20984;43.508;1.504;2022-10-26T02:00:48;36.90;;;17.40;;
34765;SDS011;20984;43.508;1.504;2022-10-26T02:06:11;37.47;;;17.63;;
34765;SDS011;20984;43.508;1.504;2022-10-26T02:12:04;33.38;;;16.42;;
34765;SDS011;20984;43.508;1.504;2022-10-26T02:14:48;44.17;;;19.02;;
34765;SDS011;20984;43.508;1.504;2022-10-26T02:20:02;46.03;;;18.15;;
34765;SDS011;20984;43.508;1.504;2022-10-26T02:22:34;37.05;;;16.63;;
34765;SDS011;20984;43.508;1.504;2022-10-26T02:25:07;36.40;;;17.40;;
34765;SDS011;20984;43.508;1.504;2022-10-26T02:27:39;38.83;;;17.67;;
34765;SDS011;20984;43.508;1.504;2022-10-26T02:30:08;40.92;;;16.80;;
34765;SDS011;20984;43.508;1.504;2022-10-26T02:32:36;39.38;;;17.25;;
34765;SDS011;20984;43.508;1.504;2022-10-26T02:35:07;33.25;;;17.63;;
34765;SDS011;20984;43.508;1.504;2022-10-26T02:37:33;35.00;;;18.10;;
34765;SDS011;20984;43.508;1.504;2022-10-26T02:40:02;41.28;;;17.08;;
34765;SDS011;20984;43.508;1.504;2022-10-26T02:42:31;32.00;;;16.37;;
34765;SDS011;20984;43.508;1.504;2022-10-26T02:44:59;45.83;;;17.95;;
34765;SDS011;20984;43.508;1.504;2022-10-26T02:47:31;34.95;;;17.92;;
34765;SDS011;20984;43.508;1.504;2022-10-26T02:49:57;36.58;;;17.52;;
34765;SDS011;20984;43.508;1.504;2022-10-26T02:52:28;34.20;;;18.42;;
34765;SDS011;20984;43.508;1.504;2022-10-26T02:55:14;27.83;;;16.63;;
34765;SDS011;20984;43.508;1.504;2022-10-26T02:57:46;38.35;;;18.23;;
34765;SDS011;20984;43.508;1.504;2022-10-26T03:00:17;36.20;;;17.88;;
34765;SDS011;20984;43.508;1.504;2022-10-26T03:02:44;33.65;;;17.80;;
34765;SDS011;20984;43.508;1.504;2022-10-26T03:07:49;41.67;;;18.50;;
34765;SDS011;20984;43.508;1.504;2022-10-26T03:10:14;30.45;;;17.35;;
34765;SDS011;20984;43.508;1.504;2022-10-26T03:12:40;43.70;;;19.38;;
34765;SDS011;20984;43.508;1.504;2022-10-26T03:15:06;37.30;;;19.00;;
34765;SDS011;20984;43.508;1.504;2022-10-26T03:17:33;35.92;;;18.40;;
34765;SDS011;20984;43.508;1.504;2022-10-26T03:19:58;32.75;;;18.05;;
34765;SDS011;20984;43.508;1.504;2022-10-26T03:22:24;32.17;;;17.83;;
34765;SDS011;20984;43.508;1.504;2022-10-26T03:24:50;38.30;;;18.08;;
34765;SDS011;20984;43.508;1.504;2022-10-26T03:27:16;37.45;;;17.80;;
34765;SDS011;20984;43.508;1.504;2022-10-26T03:29:41;39.58;;;17.30;;
34765;SDS011;20984;43.508;1.504;2022-10-26T03:32:07;31.15;;;18.95;;
34765;SDS011;20984;43.508;1.504;2022-10-26T03:34:33;37.20;;;18.73;;
34765;SDS011;20984;43.508;1.504;2022-10-26T03:36:59;40.80;;;18.65;;
34765;SDS011;20984;43.508;1.504;2022-10-26T03:39:24;41.90;;;18.77;;
34765;SDS011;20984;43.508;1.504;2022-10-26T03:41:50;29.85;;;16.50;;
34765;SDS011;20984;43.508;1.504;2022-10-26T03:44:16;37.83;;;18.30;;
34765;SDS011;20984;43.508;1.504;2022-10-26T03:46:42;25.48;;;16.65;;
34765;SDS011;20984;43.508;1.504;2022-10-26T03:49:08;38.20;;;17.95;;
34765;SDS011;20984;43.508;1.504;2022-10-26T03:51:33;28.80;;;17.85;;
34765;SDS011;20984;43.508;1.504;2022-10-26T03:53:59;30.90;;;16.77;;
34765;SDS011;20984;43.508;1.504;2022-10-26T03:56:25;43.17;;;19.08;;
34765;SDS011;20984;43.508;1.504;2022-10-26T03:58:51;36.90;;;16.83;;
34765;SDS011;20984;43.508;1.504;2022-10-26T04:01:17;37.30;;;17.30;;
34765;SDS011;20984;43.508;1.504;2022-10-26T04:03:43;37.13;;;18.50;;
34765;SDS011;20984;43.508;1.504;2022-10-26T04:06:08;41.75;;;19.88;;
34765;SDS011;20984;43.508;1.504;2022-10-26T04:08:34;34.30;;;18.17;;
34765;SDS011;20984;43.508;1.504;2022-10-26T04:11:00;27.65;;;17.40;;
34765;SDS011;20984;43.508;1.504;2022-10-26T04:13:26;29.42;;;17.48;;
34765;SDS011;20984;43.508;1.504;2022-10-26T04:15:52;33.10;;;18.50;;
34765;SDS011;20984;43.508;1.504;2022-10-26T04:18:17;34.05;;;18.17;;
34765;SDS011;20984;43.508;1.504;2022-10-26T04:20:43;30.33;;;17.55;;
34765;SDS011;20984;43.508;1.504;2022-10-26T04:23:13;34.65;;;18.92;;
34765;SDS011;20984;43.508;1.504;2022-10-26T04:25:40;35.15;;;19.40;;
34765;SDS011;20984;43.508;1.504;2022-10-26T04:28:07;37.75;;;19.02;;
34765;SDS011;20984;43.508;1.504;2022-10-26T04:30:34;35.90;;;19.95;;
34765;SDS011;20984;43.508;1.504;2022-10-26T04:33:01;48.03;;;18.77;;
34765;SDS011;20984;43.508;1.504;2022-10-26T04:35:27;35.65;;;21.55;;
34765;SDS011;20984;43.508;1.504;2022-10-26T04:37:57;40.65;;;19.50;;
34765;SDS011;20984;43.508;1.504;2022-10-26T04:40:24;38.28;;;19.67;;
34765;SDS011;20984;43.508;1.504;2022-10-26T04:42:50;50.05;;;19.92;;
34765;SDS011;20984;43.508;1.504;2022-10-26T04:45:16;40.17;;;20.05;;
34765;SDS011;20984;43.508;1.504;2022-10-26T04:47:42;42.65;;;20.45;;
34765;SDS011;20984;43.508;1.504;2022-10-26T04:50:08;47.08;;;22.13;;
34765;SDS011;20984;43.508;1.504;2022-10-26T04:52:35;44.60;;;21.30;;
34765;SDS011;20984;43.508;1.504;2022-10-26T04:55:02;43.40;;;23.15;;
34765;SDS011;20984;43.508;1.504;2022-10-26T04:57:30;44.30;;;21.83;;
34765;SDS011;20984;43.508;1.504;2022-10-26T04:59:57;41.00;;;22.90;;
34765;SDS011;20984;43.508;1.504;2022-10-26T05:02:24;40.38;;;22.55;;
34765;SDS011;20984;43.508;1.504;2022-10-26T05:04:50;46.45;;;22.58;;
34765;SDS011;20984;43.508;1.504;2022-10-26T05:07:16;40.72;;;21.63;;
34765;SDS011;20984;43.508;1.504;2022-10-26T05:09:42;50.03;;;22.90;;
34765;SDS011;20984;43.508;1.504;2022-10-26T05:12:08;57.78;;;25.20;;
34765;SDS011;20984;43.508;1.504;2022-10-26T05:14:33;55.67;;;22.38;;
34765;SDS011;20984;43.508;1.504;2022-10-26T05:16:59;40.63;;;20.60;;
34765;SDS011;20984;43.508;1.504;2022-10-26T05:19:25;41.80;;;21.10;;
34765;SDS011;20984;43.508;1.504;2022-10-26T05:21:51;41.55;;;21.80;;
34765;SDS011;20984;43.508;1.504;2022-10-26T05:24:17;47.30;;;22.70;;
34765;SDS011;20984;43.508;1.504;2022-10-26T05:26:43;46.92;;;19.70;;
34765;SDS011;20984;43.508;1.504;2022-10-26T05:29:10;45.92;;;21.27;;
34765;SDS011;20984;43.508;1.504;2022-10-26T05:31:35;44.83;;;23.23;;
34765;SDS011;20984;43.508;1.504;2022-10-26T05:34:01;38.80;;;21.50;;
34765;SDS011;20984;43.508;1.504;2022-10-26T05:36:27;43.72;;;21.88;;
34765;SDS011;20984;43.508;1.504;2022-10-26T05:38:56;40.58;;;21.42;;
34765;SDS011;20984;43.508;1.504;2022-10-26T05:41:22;38.67;;;21.58;;
34765;SDS011;20984;43.508;1.504;2022-10-26T05:43:49;38.30;;;20.52;;
34765;SDS011;20984;43.508;1.504;2022-10-26T05:46:14;40.03;;;22.65;;
34765;SDS011;20984;43.508;1.504;2022-10-26T05:48:40;45.33;;;21.75;;
34765;SDS011;20984;43.508;1.504;2022-10-26T05:51:06;37.90;;;22.48;;
34765;SDS011;20984;43.508;1.504;2022-10-26T05:53:32;42.58;;;22.65;;
34765;SDS011;20984;43.508;1.504;2022-10-26T05:55:58;47.53;;;25.30;;
34765;SDS011;20984;43.508;1.504;2022-10-26T05:58:24;38.72;;;24.67;;
34765;SDS011;20984;43.508;1.504;2022-10-26T06:03:22;49.17;;;25.92;;
34765;SDS011;20984;43.508;1.504;2022-10-26T06:06:13;47.00;;;24.75;;
34765;SDS011;20984;43.508;1.504;2022-10-26T06:08:39;44.58;;;23.75;;
34765;SDS011;20984;43.508;1.504;2022-10-26T06:11:07;44.30;;;23.98;;
34765;SDS011;20984;43.508;1.504;2022-10-26T06:13:33;45.20;;;23.60;;
34765;SDS011;20984;43.508;1.504;2022-10-26T06:21:30;61.28;;;28.02;;
34765;SDS011;20984;43.508;1.504;2022-10-26T06:24:15;52.42;;;29.35;;
34765;SDS011;20984;43.508;1.504;2022-10-26T06:30:00;69.82;;;31.33;;
34765;SDS011;20984;43.508;1.504;2022-10-26T06:32:26;61.75;;;30.13;;
34765;SDS011;20984;43.508;1.504;2022-10-26T06:37:31;73.30;;;31.67;;
34765;SDS011;20984;43.508;1.504;2022-10-26T06:39:58;78.30;;;33.28;;
34765;SDS011;20984;43.508;1.504;2022-10-26T06:42:25;81.13;;;33.42;;
34765;SDS011;20984;43.508;1.504;2022-10-26T06:44:51;78.53;;;33.47;;
34765;SDS011;20984;43.508;1.504;2022-10-26T06:47:22;64.75;;;31.55;;
34765;SDS011;20984;43.508;1.504;2022-10-26T06:58:17;77.38;;;27.35;;
34765;SDS011;20984;43.508;1.504;2022-10-26T07:00:45;70.57;;;30.20;;
34765;SDS011;20984;43.508;1.504;2022-10-26T07:03:13;68.88;;;29.70;;
34765;SDS011;20984;43.508;1.504;2022-10-26T07:05:39;81.32;;;30.52;;
34765;SDS011;20984;43.508;1.504;2022-10-26T07:08:05;71.13;;;32.15;;
34765;SDS011;20984;43.508;1.504;2022-10-26T07:10:31;83.28;;;30.00;;
34765;SDS011;20984;43.508;1.504;2022-10-26T07:13:00;69.65;;;30.00;;
34765;SDS011;20984;43.508;1.504;2022-10-26T07:15:26;74.63;;;31.08;;
34765;SDS011;20984;43.508;1.504;2022-10-26T07:17:51;78.22;;;32.58;;
34765;SDS011;20984;43.508;1.504;2022-10-26T07:20:19;82.30;;;30.98;;
34765;SDS011;20984;43.508;1.504;2022-10-26T07:22:52;81.75;;;30.52;;
34765;SDS011;20984;43.508;1.504;2022-10-26T07:25:19;75.05;;;27.75;;
34765;SDS011;20984;43.508;1.504;2022-10-26T07:27:46;77.82;;;28.58;;
34765;SDS011;20984;43.508;1.504;2022-10-26T07:30:12;62.65;;;27.50;;
34765;SDS011;20984;43.508;1.504;2022-10-26T07:32:38;68.03;;;25.60;;
34765;SDS011;20984;43.508;1.504;2022-10-26T07:35:04;68.25;;;25.55;;
34765;SDS011;20984;43.508;1.504;2022-10-26T07:37:30;54.35;;;23.33;;
34765;SDS011;20984;43.508;1.504;2022-10-26T07:39:55;50.42;;;25.20;;
34765;SDS011;20984;43.508;1.504;2022-10-26T07:42:21;58.22;;;22.67;;
34765;SDS011;20984;43.508;1.504;2022-10-26T07:44:47;55.95;;;22.75;;
34765;SDS011;20984;43.508;1.504;2022-10-26T07:47:13;48.28;;;20.10;;
34765;SDS011;20984;43.508;1.504;2022-10-26T07:49:39;53.92;;;22.52;;
34765;SDS011;20984;43.508;1.504;2022-10-26T07:52:05;41.72;;;20.50;;
34765;SDS011;20984;43.508;1.504;2022-10-26T07:54:31;37.17;;;19.10;;
34765;SDS011;20984;43.508;1.504;2022-10-26T07:56:57;58.40;;;19.75;;
34765;SDS011;20984;43.508;1.504;2022-10-26T07:59:23;46.90;;;19.33;;
34765;SDS011;20984;43.508;1.504;2022-10-26T08:01:49;40.42;;;18.13;;
34765;SDS011;20984;43.508;1.504;2022-10-26T08:04:15;36.47;;;18.02;;
34765;SDS011;20984;43.508;1.504;2022-10-26T08:06:40;42.20;;;19.20;;
34765;SDS011;20984;43.508;1.504;2022-10-26T08:09:06;51.50;;;20.10;;
34765;SDS011;20984;43.508;1.504;2022-10-26T08:11:32;31.63;;;17.58;;
34765;SDS011;20984;43.508;1.504;2022-10-26T08:14:00;42.22;;;18.48;;
34765;SDS011;20984;43.508;1.504;2022-10-26T08:16:27;47.28;;;18.67;;
34765;SDS011;20984;43.508;1.504;2022-10-26T08:18:53;37.67;;;17.20;;
34765;SDS011;20984;43.508;1.504;2022-10-26T08:21:18;38.05;;;16.55;;
34765;SDS011;20984;43.508;1.504;2022-10-26T08:23:44;35.05;;;15.02;;
34765;SDS011;20984;43.508;1.504;2022-10-26T08:26:10;44.40;;;16.25;;
34765;SDS011;20984;43.508;1.504;2022-10-26T08:28:36;39.58;;;15.45;;
34765;SDS011;20984;43.508;1.504;2022-10-26T08:31:02;29.80;;;13.82;;
34765;SDS011;20984;43.508;1.504;2022-10-26T08:33:29;40.80;;;15.55;;
34765;SDS011;20984;43.508;1.504;2022-10-26T08:35:55;31.02;;;13.10;;
34765;SDS011;20984;43.508;1.504;2022-10-26T08:38:25;30.40;;;13.63;;
34765;SDS011;20984;43.508;1.504;2022-10-26T08:40:52;33.90;;;13.63;;
34765;SDS011;20984;43.508;1.504;2022-10-26T08:43:25;29.35;;;14.13;;
34765;SDS011;20984;43.508;1.504;2022-10-26T08:46:15;31.70;;;12.20;;
34765;SDS011;20984;43.508;1.504;2022-10-26T08:51:44;27.83;;;12.25;;
34765;SDS011;20984;43.508;1.504;2022-10-26T08:54:13;31.90;;;12.40;;
34765;SDS011;20984;43.508;1.504;2022-10-26T08:56:56;28.17;;;11.90;;
34765;SDS011;20984;43.508;1.504;2022-10-26T08:59:30;33.70;;;11.98;;
34765;SDS011;20984;43.508;1.504;2022-10-26T09:02:03;32.45;;;11.07;;
34765;SDS011;20984;43.508;1.504;2022-10-26T09:04:37;22.98;;;10.02;;
34765;SDS011;20984;43.508;1.504;2022-10-26T09:15:46;32.97;;;10.68;;
34765;SDS011;20984;43.508;1.504;2022-10-26T09:26:03;37.25;;;11.32;;
34765;SDS011;20984;43.508;1.504;2022-10-26T09:28:37;30.23;;;11.15;;
34765;SDS011;20984;43.508;1.504;2022-10-26T09:31:08;26.77;;;9.43;;
34765;SDS011;20984;43.508;1.504;2022-10-26T09:33:39;24.08;;;8.35;;
34765;SDS011;20984;43.508;1.504;2022-10-26T09:36:06;25.63;;;9.50;;
34765;SDS011;20984;43.508;1.504;2022-10-26T09:38:43;27.50;;;9.48;;
34765;SDS011;20984;43.508;1.504;2022-10-26T09:41:36;27.23;;;9.65;;
34765;SDS011;20984;43.508;1.504;2022-10-26T09:46:45;29.67;;;8.48;;
34765;SDS011;20984;43.508;1.504;2022-10-26T09:49:39;29.05;;;9.07;;
34765;SDS011;20984;43.508;1.504;2022-10-26T09:52:13;24.52;;;8.88;;
34765;SDS011;20984;43.508;1.504;2022-10-26T09:54:39;23.17;;;9.88;;
34765;SDS011;20984;43.508;1.504;2022-10-26T09:57:05;25.10;;;9.05;;
34765;SDS011;20984;43.508;1.504;2022-10-26T09:59:33;27.50;;;10.13;;
34765;SDS011;20984;43.508;1.504;2022-10-26T10:05:15;27.25;;;9.43;;
34765;SDS011;20984;43.508;1.504;2022-10-26T10:07:44;21.30;;;8.43;;
34765;SDS011;20984;43.508;1.504;2022-10-26T10:10:15;26.23;;;7.72;;
34765;SDS011;20984;43.508;1.504;2022-10-26T10:12:46;24.20;;;9.20;;
34765;SDS011;20984;43.508;1.504;2022-10-26T10:15:21;25.73;;;8.77;;
34765;SDS011;20984;43.508;1.504;2022-10-26T10:17:52;26.50;;;8.77;;
34765;SDS011;20984;43.508;1.504;2022-10-26T10:20:40;21.70;;;9.35;;
34765;SDS011;20984;43.508;1.504;2022-10-26T10:23:34;25.50;;;8.45;;
34765;SDS011;20984;43.508;1.504;2022-10-26T10:26:10;28.92;;;8.65;;
34765;SDS011;20984;43.508;1.504;2022-10-26T10:28:36;19.67;;;7.70;;
34765;SDS011;20984;43.508;1.504;2022-10-26T10:31:04;21.45;;;7.25;;
34765;SDS011;20984;43.508;1.504;2022-10-26T10:33:42;20.50;;;8.43;;
34765;SDS011;20984;43.508;1.504;2022-10-26T10:36:12;23.48;;;7.97;;
34765;SDS011;20984;43.508;1.504;2022-10-26T10:38:42;23.20;;;7.93;;
34765;SDS011;20984;43.508;1.504;2022-10-26T10:41:17;21.83;;;7.57;;
34765;SDS011;20984;43.508;1.504;2022-10-26T10:46:40;23.50;;;8.30;;
34765;SDS011;20984;43.508;1.504;2022-10-26T10:49:15;23.25;;;8.68;;
34765;SDS011;20984;43.508;1.504;2022-10-26T10:51:48;26.42;;;8.05;;
34765;SDS011;20984;43.508;1.504;2022-10-26T10:54:22;27.13;;;8.63;;
34765;SDS011;20984;43.508;1.504;2022-10-26T10:57:10;20.85;;;7.65;;
34765;SDS011;20984;43.508;1.504;2022-10-26T11:05:18;18.00;;;6.70;;
34765;SDS011;20984;43.508;1.504;2022-10-26T11:07:57;29.23;;;7.55;;
34765;SDS011;20984;43.508;1.504;2022-10-26T11:10:34;16.33;;;6.72;;
34765;SDS011;20984;43.508;1.504;2022-10-26T11:13:09;26.85;;;7.43;;
34765;SDS011;20984;43.508;1.504;2022-10-26T11:15:44;20.42;;;6.82;;
34765;SDS011;20984;43.508;1.504;2022-10-26T11:20:53;26.38;;;7.40;;
34765;SDS011;20984;43.508;1.504;2022-10-26T11:23:30;26.38;;;7.28;;
34765;SDS011;20984;43.508;1.504;2022-10-26T11:26:08;21.48;;;7.10;;
34765;SDS011;20984;43.508;1.504;2022-10-26T11:28:44;24.67;;;7.35;;
34765;SDS011;20984;43.508;1.504;2022-10-26T11:31:20;29.42;;;7.47;;
34765;SDS011;20984;43.508;1.504;2022-10-26T11:34:00;24.23;;;6.40;;
34765;SDS011;20984;43.508;1.504;2022-10-26T11:39:24;15.93;;;7.13;;
34765;SDS011;20984;43.508;1.504;2022-10-26T11:42:12;17.88;;;6.65;;
34765;SDS011;20984;43.508;1.504;2022-10-26T11:45:02;19.17;;;7.45;;
34765;SDS011;20984;43.508;1.504;2022-10-26T11:47:36;23.10;;;7.90;;
34765;SDS011;20984;43.508;1.504;2022-10-26T11:55:41;19.10;;;6.30;;
34765;SDS011;20984;43.508;1.504;2022-10-26T11:58:11;22.45;;;5.80;;
34765;SDS011;20984;43.508;1.504;2022-10-26T12:00:48;20.15;;;6.45;;
34765;SDS011;20984;43.508;1.504;2022-10-26T12:03:19;17.48;;;7.90;;
34765;SDS011;20984;43.508;1.504;2022-10-26T12:05:51;25.63;;;7.47;;
34765;SDS011;20984;43.508;1.504;2022-10-26T12:08:20;27.38;;;8.45;;
34765;SDS011;20984;43.508;1.504;2022-10-26T12:10:51;15.57;;;6.90;;
34765;SDS011;20984;43.508;1.504;2022-10-26T12:21:12;18.15;;;7.68;;
34765;SDS011;20984;43.508;1.504;2022-10-26T12:23:52;25.23;;;6.85;;
34765;SDS011;20984;43.508;1.504;2022-10-26T12:34:06;21.02;;;7.10;;
34765;SDS011;20984;43.508;1.504;2022-10-26T12:39:28;25.23;;;8.55;;
34765;SDS011;20984;43.508;1.504;2022-10-26T12:44:37;18.17;;;7.40;;
34765;SDS011;20984;43.508;1.504;2022-10-26T12:47:05;20.02;;;7.25;;
34765;SDS011;20984;43.508;1.504;2022-10-26T13:01:15;23.15;;;7.28;;
34765;SDS011;20984;43.508;1.504;2022-10-26T13:03:48;33.67;;;8.52;;
34765;SDS011;20984;43.508;1.504;2022-10-26T13:09:06;22.25;;;6.97;;
34765;SDS011;20984;43.508;1.504;2022-10-26T13:11:42;23.65;;;7.38;;
34765;SDS011;20984;43.508;1.504;2022-10-26T13:14:25;20.83;;;5.95;;
34765;SDS011;20984;43.508;1.504;2022-10-26T13:17:01;23.77;;;7.00;;
34765;SDS011;20984;43.508;1.504;2022-10-26T13:22:13;19.13;;;7.45;;
34765;SDS011;20984;43.508;1.504;2022-10-26T13:24:42;23.05;;;6.20;;
34765;SDS011;20984;43.508;1.504;2022-10-26T13:32:29;29.40;;;7.28;;
34765;SDS011;20984;43.508;1.504;2022-10-26T13:35:05;38.35;;;6.88;;
34765;SDS011;20984;43.508;1.504;2022-10-26T13:37:38;22.10;;;7.05;;
34765;SDS011;20984;43.508;1.504;2022-10-26T13:40:09;24.30;;;7.28;;
34765;SDS011;20984;43.508;1.504;2022-10-26T13:42:55;23.30;;;5.82;;
34765;SDS011;20984;43.508;1.504;2022-10-26T13:50:42;23.93;;;6.50;;
34765;SDS011;20984;43.508;1.504;2022-10-26T13:53:13;23.08;;;7.80;;
34765;SDS011;20984;43.508;1.504;2022-10-26T13:56:02;21.80;;;7.18;;
34765;SDS011;20984;43.508;1.504;2022-10-26T13:58:37;19.52;;;6.22;;
34765;SDS011;20984;43.508;1.504;2022-10-26T14:03:35;21.77;;;6.55;;
34765;SDS011;20984;43.508;1.504;2022-10-26T14:06:06;23.92;;;7.07;;
34765;SDS011;20984;43.508;1.504;2022-10-26T14:08:35;19.13;;;6.53;;
34765;SDS011;20984;43.508;1.504;2022-10-26T14:11:04;16.58;;;7.15;;
34765;SDS011;20984;43.508;1.504;2022-10-26T14:13:32;25.65;;;6.30;;
34765;SDS011;20984;43.508;1.504;2022-10-26T14:15:59;23.02;;;6.35;;
34765;SDS011;20984;43.508;1.504;2022-10-26T14:18:25;23.27;;;6.75;;
34765;SDS011;20984;43.508;1.504;2022-10-26T14:21:01;24.20;;;7.53;;
34765;SDS011;20984;43.508;1.504;2022-10-26T14:23:34;19.88;;;7.32;;
34765;SDS011;20984;43.508;1.504;2022-10-26T14:26:02;24.27;;;7.65;;
34765;SDS011;20984;43.508;1.504;2022-10-26T14:28:30;12.88;;;6.85;;
34765;SDS011;20984;43.508;1.504;2022-10-26T14:31:10;18.23;;;6.75;;
34765;SDS011;20984;43.508;1.504;2022-10-26T14:33:37;19.15;;;6.63;;
34765;SDS011;20984;43.508;1.504;2022-10-26T14:36:03;17.50;;;6.82;;
34765;SDS011;20984;43.508;1.504;2022-10-26T14:38:30;18.73;;;6.80;;
34765;SDS011;20984;43.508;1.504;2022-10-26T14:41:04;18.45;;;6.35;;
34765;SDS011;20984;43.508;1.504;2022-10-26T14:43:30;25.40;;;7.00;;
34765;SDS011;20984;43.508;1.504;2022-10-26T14:45:56;21.60;;;6.60;;
34765;SDS011;20984;43.508;1.504;2022-10-26T14:48:24;19.52;;;6.35;;
34765;SDS011;20984;43.508;1.504;2022-10-26T14:51:01;27.00;;;7.68;;
34765;SDS011;20984;43.508;1.504;2022-10-26T14:53:31;26.30;;;7.15;;
34765;SDS011;20984;43.508;1.504;2022-10-26T14:56:04;24.55;;;7.13;;
34765;SDS011;20984;43.508;1.504;2022-10-26T14:58:40;15.95;;;6.25;;
34765;SDS011;20984;43.508;1.504;2022-10-26T15:01:23;17.38;;;6.45;;
34765;SDS011;20984;43.508;1.504;2022-10-26T15:03:54;27.65;;;7.60;;
34765;SDS011;20984;43.508;1.504;2022-10-26T15:06:28;19.38;;;7.63;;
34765;SDS011;20984;43.508;1.504;2022-10-26T15:08:55;20.75;;;7.10;;
34765;SDS011;20984;43.508;1.504;2022-10-26T15:11:22;23.65;;;7.07;;
34765;SDS011;20984;43.508;1.504;2022-10-26T15:13:48;15.15;;;6.60;;
34765;SDS011;20984;43.508;1.504;2022-10-26T15:18:48;17.08;;;6.25;;
34765;SDS011;20984;43.508;1.504;2022-10-26T15:23:52;16.92;;;6.75;;
34765;SDS011;20984;43.508;1.504;2022-10-26T15:26:20;20.73;;;8.55;;
34765;SDS011;20984;43.508;1.504;2022-10-26T15:28:46;15.38;;;6.72;;
34765;SDS011;20984;43.508;1.504;2022-10-26T15:33:43;28.13;;;7.25;;
34765;SDS011;20984;43.508;1.504;2022-10-26T15:36:30;22.65;;;7.45;;
34765;SDS011;20984;43.508;1.504;2022-10-26T15:38:57;23.77;;;6.78;;
34765;SDS011;20984;43.508;1.504;2022-10-26T15:43:55;14.88;;;6.55;;
34765;SDS011;20984;43.508;1.504;2022-10-26T15:46:23;19.38;;;7.07;;
34765;SDS011;20984;43.508;1.504;2022-10-26T15:48:53;18.88;;;7.30;;
34765;SDS011;20984;43.508;1.504;2022-10-26T15:51:21;20.80;;;8.38;;
34765;SDS011;20984;43.508;1.504;2022-10-26T15:53:47;23.30;;;7.55;;
34765;SDS011;20984;43.508;1.504;2022-10-26T15:56:15;23.23;;;8.68;;
34765;SDS011;20984;43.508;1.504;2022-10-26T15:58:45;22.02;;;8.68;;
34765;SDS011;20984;43.508;1.504;2022-10-26T16:01:15;20.60;;;6.95;;
34765;SDS011;20984;43.508;1.504;2022-10-26T16:03:43;22.10;;;7.38;;
34765;SDS011;20984;43.508;1.504;2022-10-26T16:06:30;25.15;;;7.25;;
34765;SDS011;20984;43.508;1.504;2022-10-26T16:08:57;25.83;;;8.00;;
34765;SDS011;20984;43.508;1.504;2022-10-26T16:11:25;24.33;;;7.70;;
34765;SDS011;20984;43.508;1.504;2022-10-26T16:13:52;14.95;;;8.32;;
34765;SDS011;20984;43.508;1.504;2022-10-26T16:16:18;18.88;;;7.47;;
34765;SDS011;20984;43.508;1.504;2022-10-26T16:18:46;22.75;;;7.78;;
34765;SDS011;20984;43.508;1.504;2022-10-26T16:21:17;22.33;;;7.30;;
34765;SDS011;20984;43.508;1.504;2022-10-26T16:23:47;25.17;;;7.95;;
34765;SDS011;20984;43.508;1.504;2022-10-26T16:26:15;19.83;;;8.68;;
34765;SDS011;20984;43.508;1.504;2022-10-26T16:28:41;27.17;;;8.52;;
34765;SDS011;20984;43.508;1.504;2022-10-26T16:31:09;21.73;;;8.02;;
34765;SDS011;20984;43.508;1.504;2022-10-26T16:33:36;27.88;;;8.32;;
34765;SDS011;20984;43.508;1.504;2022-10-26T16:36:02;37.13;;;8.88;;
34765;SDS011;20984;43.508;1.504;2022-10-26T16:38:30;24.27;;;8.48;;
34765;SDS011;20984;43.508;1.504;2022-10-26T16:41:00;27.73;;;9.25;;
34765;SDS011;20984;43.508;1.504;2022-10-26T16:43:35;27.88;;;8.15;;
34765;SDS011;20984;43.508;1.504;2022-10-26T16:46:05;30.02;;;7.65;;
34765;SDS011;20984;43.508;1.504;2022-10-26T16:48:36;24.52;;;9.07;;
34765;SDS011;20984;43.508;1.504;2022-10-26T16:51:03;26.07;;;9.63;;
34765;SDS011;20984;43.508;1.504;2022-10-26T16:53:30;24.52;;;8.20;;
34765;SDS011;20984;43.508;1.504;2022-10-26T16:56:03;21.48;;;8.23;;
34765;SDS011;20984;43.508;1.504;2022-10-26T16:58:30;16.75;;;7.70;;
34765;SDS011;20984;43.508;1.504;2022-10-26T17:00:56;24.88;;;9.05;;
34765;SDS011;20984;43.508;1.504;2022-10-26T17:03:22;15.60;;;7.75;;
34765;SDS011;20984;43.508;1.504;2022-10-26T17:05:57;22.35;;;8.02;;
34765;SDS011;20984;43.508;1.504;2022-10-26T17:08:25;21.40;;;9.00;;
34765;SDS011;20984;43.508;1.504;2022-10-26T17:10:52;29.35;;;9.07;;
34765;SDS011;20984;43.508;1.504;2022-10-26T17:13:18;30.27;;;9.98;;
34765;SDS011;20984;43.508;1.504;2022-10-26T17:15:44;19.73;;;9.18;;